• Join FlightAware (Why Join?)
  • Login
  • US Flag 
11:49PM EDT


 

Airport Tracker/Info


-or-


 

Live Flight TrackerFlight Track Log ✈ UAL6057 ✈ 11-May-2013 ✈ KDEN - KSGF

Flight Track Log - Related Links

Times and Time Zones

All times are in EDT time to prevent confusion due to time zone crossing. See the UAL6057 flight status page for this flight to view local times or setup timezone preferences in your user account.

Time Position Orientation Groundspeed Altitude Reporting Facility
EDT Latitude Longitude Course Direction KTS MPH feet Rate Location/Type
07:34PM 39.9000 -104.7167 201° Southwest 187 215 6,800  Level Denver TRACON
07:35PM 39.9194 -104.7425 314° West 196 226 7,900 1,800 Climbing Denver Center
07:36PM 39.9381 -104.8247 286° West 239 275 9,600 1,860 Climbing Denver Center
07:37PM 39.8833 -104.8839 220° Southwest 265 305 11,800 2,340 Climbing Denver Center
07:38PM 39.8111 -104.9331 208° Southwest 273 314 14,500 1,980 Climbing Denver Center
07:39PM 39.7414 -104.9747 205° Southwest 278 320 15,900 1,080 Climbing Denver Center
07:40PM 39.4924 -104.4955 201° Southwest  Level FlightAware Approximate
07:40PM 39.6489 -105.0344 206° Southwest 339 390 16,800  Level Denver Center
07:41PM 39.5528 -105.0736 197° South 376 433 18,200 1,200 Climbing Denver Center
07:42PM 39.4497 -105.0239 160° South 398 458 19,300 1,620 Climbing Denver Center
07:43PM 39.3453 -104.9458 150° Southeast 407 468 21,600 1,680 Climbing Denver Center
07:44PM 39.2867 -104.8250 122° Southeast 406 467 22,800 1,380 Climbing Denver Center
07:45PM 39.2306 -104.6950 119° Southeast 415 478 24,500 1,920 Climbing Denver Center
07:46PM 39.1756 -104.5611 118° Southeast 397 457 26,800 1,860 Climbing Denver Center
07:47PM 39.1161 -104.4606 127° Southeast 389 448 28,400 1,620 Climbing Denver Center
07:48PM 39.0036 -104.4211 165° South 375 432 30,200 1,260 Climbing Denver Center
07:49PM 38.9019 -104.3947 169° South 386 444 31,000 360 Climbing Denver Center
07:50PM 38.7939 -104.3633 167° South 406 467 31,000  Level Denver Center
07:51PM 38.6586 -104.3189 166° South 441 507 31,000 180 Level Denver Center
07:52PM 38.5767 -104.1997 131° Southeast 460 529 31,400 480 Climbing Denver Center
07:53PM 38.5433 -104.0253 104° East 453 521 32,000 540 Climbing Denver Center
07:54PM 38.5161 -103.8719 103° East 459 528 32,600 480 Climbing Denver Center
07:55PM 38.4892 -103.7194 103° East 457 526 33,000 180 Climbing Denver Center
07:56PM 38.4572 -103.5411 103° East 460 529 33,000  Level Denver Center
07:57PM 38.4381 -103.3867 99° East 453 521 33,000  Level Denver Center
07:58PM 38.4275 -103.2358 95° East 448 516 33,000  Level Denver Center
07:59PM 38.4139 -103.0586 96° East 448 516 33,000  Level Denver Center
08:00PM 38.4025 -102.9075 95° East 448 516 33,000  Level Denver Center
08:01PM 38.3886 -102.7322 96° East 447 514 33,000  Level Denver Center
08:02PM 38.3756 -102.5806 96° East 449 517 33,000  Level Denver Center
08:04PM 38.3628 -102.4269 96° East 455 524 33,000  Level Denver Center
08:05PM 38.3469 -102.2450 96° East 462 532 33,000  Level Denver Center
08:06PM 38.3336 -102.0919 96° East 457 526 33,000  Level Denver Center
08:07PM 38.3203 -101.9367 96° East 459 528 33,000  Level Denver Center
08:08PM 38.3042 -101.7547 96° East 462 532 33,000  Level Denver Center
08:09PM 38.2903 -101.6000 96° East 460 529 33,000  Level Denver Center
08:10PM 38.2736 -101.4167 97° East 466 536 33,000  Level Denver Center
08:11PM 38.2597 -101.2600 96° East 465 535 33,000  Level Denver Center
08:12PM 38.2442 -101.1047 97° East 462 532 33,000  Level Denver Center
08:13PM 38.2269 -100.9222 97° East 462 532 33,000  Level Denver Center
08:14PM 38.2119 -100.7644 97° East 465 535 33,000  Level Denver Center
08:15PM 38.1961 -100.6075 97° East 466 536 33,000  Level Denver Center
08:15PM 38.1858 -100.5011 97° East 466 536 33,000  Level Kansas City Center
08:16PM 38.1703 -100.3447 97° East 466 536 33,000  Level Kansas City Center
08:17PM 38.1539 -100.1894 98° East 464 534 33,000  Level Kansas City Center
08:18PM 38.1344 -100.0061 98° East 466 536 33,000  Level Kansas City Center
08:19PM 38.1172 -99.8492 98° East 467 537 33,000  Level Kansas City Center
08:20PM 38.1011 -99.6939 97° East 465 535 33,000  Level Kansas City Center
08:21PM 38.0806 -99.5103 98° East 468 539 33,000  Level Kansas City Center
08:22PM 38.0650 -99.3658 98° East 471 542 33,000  Level Kansas City Center
08:23PM 38.0458 -99.2017 98° East 471 542 33,000  Level Kansas City Center
08:24PM 38.0247 -99.0056 98° East 468 539 33,000  Level Kansas City Center
08:25PM 38.0056 -98.8422 98° East 469 540 33,000  Level Kansas City Center
08:26PM 37.9881 -98.6792 98° East 468 539 33,000  Level Kansas City Center
08:28PM 37.9678 -98.5158 99° East 470 541 33,000  Level Kansas City Center
08:29PM 37.9492 -98.3522 98° East 471 542 33,000  Level Kansas City Center
08:30PM 37.9303 -98.1894 98° East 468 539 33,000  Level Kansas City Center
08:31PM 37.9103 -98.0367 99° East 463 533 33,000  Level Kansas City Center
08:32PM 37.8903 -97.8744 99° East 463 533 33,000  Level Kansas City Center
08:33PM 37.8644 -97.6725 99° East 474 545 33,000  Level Kansas City Center
08:34PM 37.8439 -97.5092 99° East 471 542 33,000  Level Kansas City Center
08:35PM 37.8258 -97.3553 98° East 473 544 33,000  Level Kansas City Center
08:36PM 37.8039 -97.1906 100° East 474 545 33,000  Level Kansas City Center
08:37PM 37.7828 -97.0272 99° East 473 544 33,000  Level Kansas City Center
08:38PM 37.7606 -96.8631 100° East 474 545 33,000 -60 Level Kansas City Center
08:39PM 37.7392 -96.6989 99° East 475 547 32,900 -840 Descending Kansas City Center
08:40PM 37.7175 -96.5344 99° East 475 547 31,400 -1,500 Descending Kansas City Center
08:41PM 37.6953 -96.3708 100° East 473 544 29,900 -1,920 Descending Kansas City Center
08:42PM 37.6672 -96.1725 100° East 478 550 27,500 -2,280 Descending Kansas City Center
08:43PM 37.6433 -96.0025 100° East 492 566 25,300 -2,220 Descending Kansas City Center
08:44PM 37.6197 -95.8328 100° East 493 567 23,100 -2,220 Descending Kansas City Center
08:45PM 37.5967 -95.6719 100° East 480 552 20,900 -2,220 Descending Kansas City Center
08:46PM 37.5750 -95.5175 100° East 460 529 18,600 -2,100 Descending Kansas City Center
08:47PM 37.5528 -95.3694 101° East 442 509 16,600 -1,800 Descending Kansas City Center
08:48PM 37.5308 -95.2239 101° East 430 495 15,000 -1,320 Descending Kansas City Center
08:49PM 37.5100 -95.0806 100° East 422 486 14,000 -1,080 Descending Kansas City Center
08:50PM 37.4892 -94.9428 101° East 409 471 12,900 -1,080 Descending Kansas City Center
08:51PM 37.4686 -94.8069 101° East 400 460 11,900 -960 Descending Kansas City Center
08:52PM 37.4508 -94.6883 101° East 359 413 11,000 -840 Descending Kansas City Center
08:53PM 37.4306 -94.5567 101° East 325 374 10,300 -600 Descending Kansas City Center
08:54PM 37.4053 -94.4561 108° East 309 356 9,800 -600 Descending Kansas City Center
08:55PM 37.3706 -94.3550 113° Southeast 310 357 9,200 -540 Descending Kansas City Center
08:56PM 37.3378 -94.2536 112° Southeast 312 359 8,800 -480 Descending Kansas City Center
08:57PM 37.3039 -94.1544 113° Southeast 310 357 8,300 -480 Descending Kansas City Center
08:58PM 37.2781 -94.0686 111° Southeast 306 352 7,900 -420 Descending Kansas City Center
08:59PM 37.2489 -93.9506 107° East 299 344 7,500 -420 Descending Kansas City Center
09:00PM 37.2283 -93.8531 105° East 294 338 7,100 -480 Descending Kansas City Center
09:01PM 37.2161 -93.7544 99° East 290 334 6,600 -600 Descending Kansas City Center
09:02PM 37.2039 -93.6575 99° East 285 328 6,000 -600 Descending Kansas City Center
09:03PM 37.1911 -93.5619 100° East 281 323 5,400 -720 Descending Kansas City Center
09:04PM 37.1775 -93.4775 101° East 263 303 4,600 -1,140 Descending Kansas City Center
09:05PM 37.1781 -93.4206 89° East 214 246 3,200 -1,380 Descending Kansas City Center
09:07PM 37.2333 -93.3833 81° East  Level FlightAware Approximate
09:14PM 37.2457 -93.3886 81° East  Level Estimated
09:15PM 37.2457 -93.3886 81° East  Level Estimated